Time;durP1;ratioP1;P1;durP2;ratioP2;P2;SDS_P1;SDS_P2;PMS_P1;PMS_P2;Temp;Humidity;BMP_temperature;BMP_pressure;BME280_temperature;BME280_humidity;BME280_pressure;Samples;Min_cycle;Max_cycle;Signal;HPM_P1;HPM_P2
2023/05/01 00:01:17;;;;;;;;;22.25;22.25;;;;;17.89;46.78;101087.34;4927075;28;45401;-59
2023/05/01 00:03:43;;;;;;;;;33.50;28.75;;;;;17.86;46.86;101083.16;4930281;28;45471;-59
2023/05/01 00:06:09;;;;;;;;;18.25;17.75;;;;;17.80;46.83;101074.97;4914999;28;46080;-59
2023/05/01 00:08:34;;;;;;;;;29.00;24.50;;;;;17.84;46.86;101081.72;4915191;28;45179;-59
2023/05/01 00:11:03;;;;;;;;;23.75;21.25;;;;;17.75;46.81;101070.19;4915376;28;45208;-59
2023/05/01 00:13:29;;;;;;;;;21.20;21.00;;;;;17.83;47.14;101080.03;4915481;28;45563;-60
2023/05/01 00:15:55;;;;;;;;;22.80;22.80;;;;;17.79;47.23;101076.91;4913559;28;46604;-59
2023/05/01 00:18:20;;;;;;;;;22.25;17.50;;;;;17.85;47.25;101083.38;4915376;28;45382;-60
2023/05/01 00:20:46;;;;;;;;;19.75;19.75;;;;;17.84;47.28;101077.00;4915232;28;45332;-58
2023/05/01 00:23:12;;;;;;;;;24.50;20.50;;;;;17.84;47.15;101082.56;4915515;28;45332;-60
2023/05/01 00:25:38;;;;;;;;;22.00;21.00;;;;;17.82;47.23;101072.81;4929509;28;46687;-59
2023/05/01 00:28:05;;;;;;;;;22.25;21.25;;;;;17.81;47.46;101071.09;4915187;28;45282;-59
2023/05/01 00:30:32;;;;;;;;;21.80;19.00;;;;;17.80;47.42;101066.63;4915111;28;45327;-60
2023/05/01 00:32:58;;;;;;;;;28.20;23.60;;;;;17.74;47.28;101063.81;4929543;28;45333;-59
2023/05/01 00:35:24;;;;;;;;;19.80;18.80;;;;;17.72;47.61;101067.94;4914790;28;46747;-59
2023/05/01 00:37:49;;;;;;;;;23.50;18.75;;;;;17.67;47.82;101071.44;4914612;28;45240;-59
2023/05/01 00:40:15;;;;;;;;;23.75;23.75;;;;;17.57;47.60;101046.31;4914726;28;45370;-59
2023/05/01 00:42:40;;;;;;;;;21.50;20.00;;;;;17.57;47.96;101061.00;4914979;28;45290;-60
2023/05/01 00:45:07;;;;;;;;;20.00;20.00;;;;;17.56;47.97;101051.00;4914668;28;46338;-59
2023/05/01 00:47:34;;;;;;;;;25.00;24.40;;;;;17.51;48.04;101042.59;4913012;28;45345;-60
2023/05/01 00:50:00;;;;;;;;;16.20;15.20;;;;;17.54;48.23;101049.56;4913526;28;45279;-59
2023/05/01 00:52:25;;;;;;;;;26.50;22.50;;;;;17.52;48.22;101047.06;4913362;28;45283;-59
2023/05/01 00:54:51;;;;;;;;;21.00;20.00;;;;;17.53;48.18;101045.09;4928552;28;46034;-59
2023/05/01 00:57:21;;;;;;;;;24.25;21.00;;;;;17.47;48.14;101038.66;4914330;28;45149;-59
2023/05/01 00:59:46;;;;;;;;;22.60;20.40;;;;;17.53;48.33;101036.78;4914844;28;45507;-60
2023/05/01 01:02:12;;;;;;;;;22.80;19.80;;;;;17.52;48.38;101038.75;4984605;28;45426;-60
2023/05/01 01:04:42;;;;;;;;;26.75;23.25;;;;;17.48;48.19;101027.31;5046540;28;46724;-59
2023/05/01 01:07:20;;;;;;;;;25.20;21.60;;;;;17.50;48.35;101034.53;5028646;28;45459;-59
2023/05/01 01:10:08;;;;;;;;;24.60;23.40;;;;;17.46;48.50;101031.41;5014356;28;45417;-59
2023/05/01 01:13:04;;;;;;;;;21.40;21.40;;;;;17.43;48.52;101032.75;5046736;28;45290;-59
2023/05/01 01:15:52;;;;;;;;;22.60;21.80;;;;;17.42;48.69;101025.53;5014149;28;45390;-59
2023/05/01 01:18:38;;;;;;;;;25.20;24.60;;;;;17.39;48.75;101026.00;5041757;28;45385;-60
2023/05/01 01:21:34;;;;;;;;;22.00;22.00;;;;;17.31;48.88;101007.03;5014405;28;45471;-59
2023/05/01 01:24:18;;;;;;;;;28.40;25.00;;;;;17.32;48.70;101011.47;5013597;28;45377;-59
2023/05/01 01:27:02;;;;;;;;;29.00;23.60;;;;;17.33;48.86;101015.91;5045958;28;46088;-59
2023/05/01 01:29:33;;;;;;;;;22.40;21.20;;;;;17.33;48.78;101011.22;5013489;28;45437;-59
2023/05/01 01:32:09;;;;;;;;;16.20;16.20;;;;;17.31;48.83;101013.41;5017089;28;45864;-60
2023/05/01 01:34:53;;;;;;;;;23.80;22.60;;;;;17.23;49.04;101005.50;5050178;28;45411;-59
2023/05/01 01:37:22;;;;;;;;;22.00;22.00;;;;;17.27;49.17;101011.38;5048726;28;46127;-59
2023/05/01 01:40:15;;;;;;;;;22.60;20.80;;;;;17.26;49.15;101005.00;5018610;28;45444;-58
2023/05/01 01:42:56;;;;;;;;;26.20;25.00;;;;;17.26;49.55;101009.69;5014889;28;45683;-58
2023/05/01 01:45:24;;;;;;;;;24.20;20.80;;;;;17.26;49.45;101001.38;5016521;28;45408;-58
2023/05/01 01:47:50;;;;;;;;;21.60;19.20;;;;;17.17;49.30;100987.06;5015871;28;46497;-58
2023/05/01 01:50:16;;;;;;;;;24.20;21.20;;;;;17.20;49.57;101006.00;5016391;28;45318;-59
2023/05/01 01:52:41;;;;;;;;;27.25;22.25;;;;;17.03;49.48;100981.03;5032342;28;45456;-58
2023/05/01 01:55:09;;;;;;;;;25.50;21.75;;;;;17.14;49.70;101005.06;5032628;28;45432;-58
2023/05/01 01:57:35;;;;;;;;;23.40;21.20;;;;;17.07;49.88;101004.38;5048236;28;46349;-58
2023/05/01 02:00:01;;;;;;;;;19.60;17.80;;;;;17.06;50.04;101016.56;5049287;28;45513;-58
2023/05/01 02:02:26;;;;;;;;;21.75;20.00;;;;;17.04;50.16;101021.53;5016985;28;45370;-59
2023/05/01 02:04:52;;;;;;;;;21.00;21.00;;;;;16.94;50.09;101005.50;5016004;28;45376;-59
2023/05/01 02:07:18;;;;;;;;;24.50;20.25;;;;;16.93;50.15;101021.28;5048807;28;46620;-59
2023/05/01 02:09:44;;;;;;;;;24.75;22.25;;;;;16.82;50.21;101000.03;5015440;28;45352;-59
2023/05/01 02:12:09;;;;;;;;;19.00;19.00;;;;;16.85;50.22;101020.88;5016058;28;45276;-60
2023/05/01 02:14:35;;;;;;;;;21.75;19.00;;;;;16.81;50.12;101020.50;5017245;28;45345;-59
2023/05/01 02:17:00;;;;;;;;;18.25;16.50;;;;;16.78;50.31;101021.84;5016995;28;46286;-59
2023/05/01 02:19:26;;;;;;;;;20.75;18.25;;;;;16.74;50.15;101012.34;5016911;28;45319;-59
2023/05/01 02:21:54;;;;;;;;;18.75;17.00;;;;;16.76;50.21;101012.09;5032014;28;45304;-59
2023/05/01 02:24:21;;;;;;;;;23.80;20.40;;;;;16.80;50.26;101021.59;5048996;28;45261;-59
2023/05/01 02:26:52;;;;;;;;;23.60;20.60;;;;;16.77;50.29;101014.59;5047845;28;47650;-59
2023/05/01 02:29:18;;;;;;;;;21.20;21.20;;;;;16.75;50.50;101010.41;5031962;28;45466;-59
2023/05/01 02:31:43;;;;;;;;;24.75;22.00;;;;;16.73;50.46;101007.88;5016569;28;45452;-59
2023/05/01 02:34:09;;;;;;;;;19.75;18.00;;;;;16.69;50.35;101015.00;5017208;28;45440;-59
2023/05/01 02:36:34;;;;;;;;;22.00;21.00;;;;;16.63;50.80;101000.22;5016795;28;46402;-59
2023/05/01 02:39:00;;;;;;;;;23.75;23.25;;;;;16.70;50.43;101015.84;5016712;28;45447;-58
2023/05/01 02:41:28;;;;;;;;;25.00;22.75;;;;;16.52;50.46;100992.78;5016629;28;45384;-59
2023/05/01 02:43:57;;;;;;;;;19.60;19.60;;;;;16.60;50.76;101010.94;5047033;28;45369;-59
2023/05/01 02:46:23;;;;;;;;;20.80;19.80;;;;;16.56;50.88;101018.91;5048290;28;46233;-59
2023/05/01 02:48:49;;;;;;;;;20.40;19.20;;;;;16.49;50.91;101018.22;5015029;28;45482;-57
2023/05/01 02:51:14;;;;;;;;;23.75;19.75;;;;;16.51;50.89;101019.66;5049022;28;45359;-58
2023/05/01 02:53:40;;;;;;;;;24.75;21.00;;;;;16.50;50.96;101014.34;5048839;28;45516;-58
2023/05/01 02:56:07;;;;;;;;;24.00;20.00;;;;;16.48;50.90;101016.50;5014639;28;46662;-58
2023/05/01 02:58:33;;;;;;;;;21.60;19.60;;;;;16.40;51.26;101015.81;5016330;28;45280;-58
2023/05/01 03:00:58;;;;;;;;;19.50;19.50;;;;;16.42;51.00;101011.97;5048178;28;45413;-59
2023/05/01 03:03:24;;;;;;;;;22.00;21.25;;;;;16.36;50.61;101022.94;4919578;28;45507;-58
2023/05/01 03:05:50;;;;;;;;;18.25;18.25;;;;;16.30;51.43;101021.13;4915652;28;46127;-58
2023/05/01 03:08:16;;;;;;;;;24.00;20.60;;;;;16.22;51.52;101021.53;4915509;28;45280;-58
2023/05/01 03:10:42;;;;;;;;;20.50;19.75;;;;;16.17;51.69;101021.41;4916009;28;45403;-59
2023/05/01 03:13:09;;;;;;;;;24.50;22.00;;;;;16.21;51.69;101022.59;4915575;28;45594;-58
2023/05/01 03:15:34;;;;;;;;;19.40;17.80;;;;;16.14;51.62;101014.41;4915837;28;45615;-58
2023/05/01 03:18:00;;;;;;;;;19.50;19.25;;;;;16.24;51.71;101011.03;4915376;28;45357;-58
2023/05/01 03:20:25;;;;;;;;;22.00;21.50;;;;;16.27;51.46;101010.53;4916036;28;45421;-58
2023/05/01 03:22:51;;;;;;;;;21.25;20.00;;;;;16.25;51.42;101009.94;4915996;28;45539;-58
2023/05/01 03:25:16;;;;;;;;;25.50;24.50;;;;;16.22;51.89;101024.28;4915357;28;45786;-59
2023/05/01 03:27:42;;;;;;;;;24.00;24.00;;;;;16.15;52.18;101020.78;4915479;28;45422;-58
2023/05/01 03:30:08;;;;;;;;;20.25;20.25;;;;;16.11;52.46;101029.59;4915440;28;45415;-58
2023/05/01 03:32:35;;;;;;;;;28.20;26.80;;;;;16.05;52.39;101024.16;4915547;28;45338;-58
2023/05/01 03:35:01;;;;;;;;;31.40;26.60;;;;;15.97;53.16;101012.38;4915265;28;46619;-58
2023/05/01 03:37:27;;;;;;;;;30.00;29.25;;;;;16.01;53.36;101028.50;4914817;28;45467;-58
2023/05/01 03:39:52;;;;;;;;;31.80;28.40;;;;;15.88;53.90;101011.03;4915537;28;45540;-58
2023/05/01 03:42:18;;;;;;;;;31.50;29.00;;;;;15.85;54.06;101020.66;4914123;28;45583;-58
2023/05/01 03:44:44;;;;;;;;;35.75;32.00;;;;;15.83;53.93;101014.53;4929860;28;47574;-58
2023/05/01 03:47:10;;;;;;;;;33.40;29.80;;;;;15.83;54.47;101022.84;4915203;28;46034;-58
2023/05/01 03:49:35;;;;;;;;;35.50;32.25;;;;;15.84;54.60;101020.91;4915285;28;45453;-58
2023/05/01 03:52:01;;;;;;;;;38.50;32.25;;;;;15.68;54.75;101003.94;4930208;28;45317;-58
2023/05/01 03:54:26;;;;;;;;;37.25;34.50;;;;;15.84;54.57;101027.28;4914346;28;45366;-58
2023/05/01 03:56:52;;;;;;;;;38.75;33.50;;;;;15.91;54.66;101029.91;4915152;28;45366;-58
2023/05/01 03:59:17;;;;;;;;;39.00;33.50;;;;;15.89;54.43;101028.50;4880154;28;45560;-58
2023/05/01 04:01:43;;;;;;;;;34.75;31.50;;;;;15.89;54.64;101034.84;4916256;28;45725;-58
2023/05/01 04:04:09;;;;;;;;;37.80;32.40;;;;;15.92;54.43;101030.81;4913957;28;47404;-59
2023/05/01 04:06:35;;;;;;;;;35.50;32.00;;;;;15.97;54.37;101031.75;4914993;28;45342;-58
2023/05/01 04:09:01;;;;;;;;;35.40;32.00;;;;;16.02;54.43;101031.06;4915207;28;45389;-58
2023/05/01 04:11:26;;;;;;;;;38.50;33.75;;;;;15.90;54.55;101027.41;4915144;28;45502;-58
2023/05/01 04:13:52;;;;;;;;;39.50;35.00;;;;;15.75;55.18;101030.66;4914724;28;45285;-59
2023/05/01 04:16:17;;;;;;;;;41.75;35.50;;;;;15.76;54.88;101027.66;4915332;28;45347;-58
2023/05/01 04:18:43;;;;;;;;;39.00;32.50;;;;;15.74;55.61;101026.19;4914512;28;45456;-58
2023/05/01 04:21:08;;;;;;;;;41.50;34.25;;;;;15.68;55.47;101014.16;4915449;28;45301;-58
2023/05/01 04:23:34;;;;;;;;;41.75;36.00;;;;;15.78;55.36;101030.16;4913184;28;45752;-59
2023/05/01 04:25:59;;;;;;;;;44.00;37.75;;;;;15.82;55.16;101035.00;4914892;28;45393;-59
2023/05/01 04:28:26;;;;;;;;;50.50;38.00;;;;;15.83;55.30;101028.38;4929020;28;45467;-59
2023/05/01 04:30:52;;;;;;;;;48.80;38.00;;;;;15.83;55.16;101036.66;4915029;28;45361;-59
2023/05/01 04:33:17;;;;;;;;;48.00;39.75;;;;;15.77;55.85;101037.63;4914610;28;45834;-59
2023/05/01 04:35:43;;;;;;;;;48.75;41.25;;;;;15.69;55.49;101038.00;4914323;28;45361;-59
2023/05/01 04:38:11;;;;;;;;;44.50;35.25;;;;;15.72;55.69;101041.13;4914693;28;45351;-59
2023/05/01 04:40:37;;;;;;;;;53.20;43.60;;;;;15.78;55.78;101047.63;4914621;28;45306;-59
2023/05/01 04:43:02;;;;;;;;;47.75;38.75;;;;;15.77;55.60;101048.69;4914314;28;46330;-59
2023/05/01 04:45:28;;;;;;;;;48.75;38.25;;;;;15.76;56.04;101048.94;4929447;28;45664;-60
2023/05/01 04:47:53;;;;;;;;;49.75;38.50;;;;;15.73;55.67;101050.25;4914267;28;45598;-59
2023/05/01 04:50:19;;;;;;;;;49.75;39.25;;;;;15.74;55.98;101056.63;4914815;28;45393;-59
2023/05/01 04:52:44;;;;;;;;;50.25;41.00;;;;;15.73;55.92;101050.25;4928938;28;45428;-59
2023/05/01 04:55:10;;;;;;;;;46.00;38.00;;;;;15.77;55.92;101047.84;4914331;28;45470;-59
2023/05/01 04:57:35;;;;;;;;;54.75;41.50;;;;;15.82;55.90;101047.97;4929098;28;45393;-59
2023/05/01 05:00:02;;;;;;;;;47.25;37.75;;;;;15.74;56.12;101048.34;4929135;28;45467;-59
2023/05/01 05:02:28;;;;;;;;;52.40;41.60;;;;;15.62;55.61;101023.44;4946899;28;47149;-59
2023/05/01 05:04:53;;;;;;;;;55.75;42.25;;;;;15.77;56.47;101058.91;5013884;28;45317;-59
2023/05/01 05:07:19;;;;;;;;;52.50;41.50;;;;;15.75;56.41;101063.84;5014388;28;45402;-59
2023/05/01 05:09:45;;;;;;;;;54.60;42.80;;;;;15.77;56.28;101057.00;5014387;28;45626;-58
2023/05/01 05:12:10;;;;;;;;;52.75;41.50;;;;;15.81;56.04;101063.72;5014489;28;46154;-59
2023/05/01 05:14:36;;;;;;;;;52.25;39.75;;;;;15.84;55.91;101063.25;5013130;28;45336;-59
2023/05/01 05:17:02;;;;;;;;;51.25;41.00;;;;;15.82;56.17;101059.91;5014104;28;45339;-60
2023/05/01 05:19:27;;;;;;;;;54.75;44.50;;;;;15.76;56.05;101071.94;5046579;28;45401;-59
2023/05/01 05:21:53;;;;;;;;;59.50;43.00;;;;;15.74;55.86;101060.22;5014228;28;45552;-59
2023/05/01 05:24:18;;;;;;;;;52.00;43.25;;;;;15.74;56.42;101071.31;5046471;28;45321;-59
2023/05/01 05:26:44;;;;;;;;;52.00;43.00;;;;;15.79;56.38;101074.19;5014139;28;45388;-59
2023/05/01 05:29:09;;;;;;;;;51.00;42.50;;;;;15.78;56.29;101068.91;5014219;28;45952;-59
2023/05/01 05:31:35;;;;;;;;;54.75;43.75;;;;;15.77;56.22;101068.06;5014231;28;46451;-60
2023/05/01 05:34:00;;;;;;;;;54.25;43.00;;;;;15.70;56.21;101067.34;5013602;28;45540;-59
2023/05/01 05:36:26;;;;;;;;;56.50;43.25;;;;;15.49;56.64;101044.69;5046114;28;45806;-57
2023/05/01 05:38:52;;;;;;;;;60.80;46.60;;;;;15.60;56.44;101059.63;5014268;28;45852;-60
2023/05/01 05:41:17;;;;;;;;;52.75;43.75;;;;;15.59;56.39;101072.59;5014196;28;46021;-60
2023/05/01 05:43:43;;;;;;;;;51.00;41.25;;;;;15.65;56.55;101067.22;5013489;28;45462;-60
2023/05/01 05:46:08;;;;;;;;;49.25;40.50;;;;;15.68;55.96;101075.00;5046062;28;45257;-60
2023/05/01 05:48:34;;;;;;;;;55.25;42.75;;;;;15.75;56.07;101070.25;5014024;28;45646;-58
2023/05/01 05:50:59;;;;;;;;;55.50;45.50;;;;;15.78;55.90;101074.44;5013496;28;46073;-59
2023/05/01 05:53:25;;;;;;;;;54.25;42.00;;;;;15.78;55.66;101075.28;5013458;28;45175;-59
2023/05/01 05:55:50;;;;;;;;;48.75;41.50;;;;;15.63;55.81;101056.38;5013664;28;45275;-59
2023/05/01 05:58:18;;;;;;;;;53.00;42.00;;;;;15.80;56.03;101070.34;5012081;28;45580;-59
2023/05/01 06:00:51;;;;;;;;;52.80;41.80;;;;;15.88;55.92;101062.78;5013197;28;46294;-61
2023/05/01 06:03:18;;;;;;;;;52.60;42.00;;;;;15.80;55.61;101042.66;4946422;28;45338;-58
2023/05/01 06:05:43;;;;;;;;;61.00;44.80;;;;;15.92;55.54;101052.94;4913258;28;45465;-59
2023/05/01 06:08:09;;;;;;;;;52.75;41.50;;;;;16.01;55.65;101068.09;4927919;28;45591;-60
2023/05/01 06:10:36;;;;;;;;;57.00;44.75;;;;;16.02;55.71;101074.50;4927748;28;47184;-60
2023/05/01 06:13:01;;;;;;;;;48.20;38.40;;;;;15.91;55.64;101056.78;4927491;28;45292;-58
2023/05/01 06:15:27;;;;;;;;;53.75;43.25;;;;;15.97;55.60;101070.50;4911915;28;45301;-60
2023/05/01 06:17:52;;;;;;;;;53.00;44.25;;;;;15.97;55.87;101066.91;4915462;28;45270;-59
2023/05/01 06:20:18;;;;;;;;;54.25;43.25;;;;;15.99;55.77;101075.81;4914670;28;46337;-59
2023/05/01 06:22:43;;;;;;;;;48.50;38.25;;;;;16.01;55.50;101072.81;4914701;28;45281;-59
2023/05/01 06:25:09;;;;;;;;;46.75;35.50;;;;;15.85;55.85;101059.41;4916059;28;45360;-60
2023/05/01 06:27:35;;;;;;;;;55.00;42.00;;;;;15.79;56.26;101081.69;4885493;28;45535;-59
2023/05/01 06:30:00;;;;;;;;;54.25;43.75;;;;;15.70;55.84;101070.94;4893879;28;45635;-59
2023/05/01 06:32:25;;;;;;;;;52.75;43.25;;;;;15.76;56.44;101077.47;4896166;29;45276;-59
2023/05/01 06:34:51;;;;;;;;;53.00;43.50;;;;;15.80;56.41;101078.66;4897529;28;45278;-59
2023/05/01 06:37:16;;;;;;;;;54.75;43.50;;;;;15.72;56.20;101079.00;4897163;28;45615;-60
2023/05/01 06:39:42;;;;;;;;;60.50;46.50;;;;;15.74;56.47;101093.44;4927325;28;46148;-59
2023/05/01 06:42:10;;;;;;;;;55.00;42.25;;;;;15.46;57.12;101081.13;4897054;28;45683;-59
2023/05/01 06:44:35;;;;;;;;;58.00;45.00;;;;;15.41;57.21;101083.75;4895526;28;45494;-59
2023/05/01 06:47:01;;;;;;;;;53.25;43.25;;;;;15.56;57.19;101088.84;4897164;28;45350;-59
2023/05/01 06:49:26;;;;;;;;;50.75;41.50;;;;;15.58;56.89;101090.28;4896554;28;46470;-59
2023/05/01 06:51:52;;;;;;;;;54.25;44.50;;;;;15.65;56.82;101078.28;4911743;28;45449;-59
2023/05/01 06:54:17;;;;;;;;;49.75;41.25;;;;;15.69;57.00;101091.38;4896867;28;45806;-59
2023/05/01 06:56:43;;;;;;;;;53.25;42.00;;;;;15.55;57.01;101082.47;4896740;28;45290;-59
2023/05/01 06:59:08;;;;;;;;;53.00;42.75;;;;;15.61;57.19;101086.22;4896536;28;46490;-59
2023/05/01 07:01:34;;;;;;;;;48.75;39.50;;;;;15.64;56.97;101093.19;4896698;29;45403;-59
2023/05/01 07:03:59;;;;;;;;;54.00;42.00;;;;;15.68;56.82;101094.38;4996612;28;45421;-59
2023/05/01 07:06:26;;;;;;;;;56.00;43.25;;;;;15.67;57.10;101090.78;5016215;28;45583;-60
2023/05/01 07:08:52;;;;;;;;;53.20;43.80;;;;;15.80;56.49;101098.03;5015853;28;45229;-60
2023/05/01 07:11:17;;;;;;;;;50.25;39.25;;;;;15.76;56.16;101079.38;5016423;28;45287;-59
2023/05/01 07:13:43;;;;;;;;;43.50;35.25;;;;;15.87;56.17;101100.69;5015911;28;45407;-59
2023/05/01 07:16:08;;;;;;;;;52.25;42.25;;;;;15.86;56.50;101101.78;5016370;28;45616;-60
2023/05/01 07:18:34;;;;;;;;;48.25;37.75;;;;;16.02;55.95;101103.03;5015490;28;46352;-59
2023/05/01 07:20:59;;;;;;;;;51.75;41.25;;;;;16.19;55.96;101107.84;5015822;28;45461;-59
2023/05/01 07:23:25;;;;;;;;;47.00;39.50;;;;;16.23;55.56;101109.88;5015960;28;45376;-59
2023/05/01 07:25:51;;;;;;;;;54.50;42.25;;;;;16.33;55.29;101095.41;5015937;28;45277;-59
2023/05/01 07:28:18;;;;;;;;;49.40;40.20;;;;;16.51;54.63;101104.69;5015087;28;46484;-59
2023/05/01 07:30:43;;;;;;;;;50.20;40.80;;;;;16.58;54.59;101105.38;5015198;28;45306;-59
2023/05/01 07:33:09;;;;;;;;;48.50;39.50;;;;;16.65;54.57;101097.78;5015396;28;45325;-59
2023/05/01 07:35:34;;;;;;;;;52.75;40.00;;;;;16.80;54.30;101110.28;5015984;28;45553;-59
2023/05/01 07:38:00;;;;;;;;;48.00;38.00;;;;;16.82;54.37;101105.34;5013622;28;45492;-59
2023/05/01 07:40:25;;;;;;;;;50.50;39.75;;;;;16.88;54.23;101106.28;5015534;28;45326;-60
2023/05/01 07:42:51;;;;;;;;;45.75;37.25;;;;;16.91;53.86;101106.63;5015323;28;45282;-59
2023/05/01 07:45:16;;;;;;;;;41.75;35.75;;;;;17.02;53.84;101107.72;4982838;28;45820;-60
2023/05/01 07:47:43;;;;;;;;;42.60;35.80;;;;;16.98;53.85;101102.88;5015055;28;46173;-61
2023/05/01 07:50:10;;;;;;;;;41.75;34.75;;;;;17.04;53.65;101115.78;5047547;28;45464;-61
2023/05/01 07:52:36;;;;;;;;;48.20;33.60;;;;;17.07;53.71;101116.13;5015809;28;45779;-60
2023/05/01 07:55:02;;;;;;;;;37.40;33.20;;;;;17.09;53.75;101115.91;5015209;28;45557;-61
2023/05/01 07:57:27;;;;;;;;;37.00;31.50;;;;;16.96;53.34;101122.53;5046982;28;47280;-61
2023/05/01 07:59:56;;;;;;;;;36.75;32.25;;;;;16.88;54.01;101125.69;5014859;28;45458;-60
2023/05/01 08:02:21;;;;;;;;;35.60;31.20;;;;;16.86;54.13;101127.88;5004819;28;46408;-60
2023/05/01 08:04:47;;;;;;;;;35.50;32.25;;;;;16.85;53.87;101118.72;4914186;28;45334;-60
2023/05/01 08:07:13;;;;;;;;;33.00;29.25;;;;;16.88;53.73;101131.25;4915003;28;46261;-60
2023/05/01 08:09:39;;;;;;;;;34.80;30.00;;;;;16.82;53.54;101123.91;4914762;28;45323;-60
2023/05/01 08:12:04;;;;;;;;;32.00;30.00;;;;;16.86;53.66;101123.16;4914840;28;45388;-60
2023/05/01 08:14:30;;;;;;;;;32.25;28.75;;;;;16.95;53.65;101123.63;4915271;28;45645;-60
2023/05/01 08:16:55;;;;;;;;;27.25;25.25;;;;;16.99;53.56;101126.75;4914910;28;46431;-60
2023/05/01 08:19:22;;;;;;;;;25.50;24.25;;;;;16.94;52.76;101122.78;4914464;28;45438;-61
2023/05/01 08:21:47;;;;;;;;;33.40;30.60;;;;;17.02;52.88;101134.63;4929636;28;45482;-61
2023/05/01 08:24:12;;;;;;;;;6.25;6.25;;;;;17.02;52.80;101127.13;4914904;28;45821;-60
2023/05/01 08:26:38;;;;;;;;;24.75;22.50;;;;;16.97;53.47;101137.25;4914144;28;46407;-60
2023/05/01 08:29:04;;;;;;;;;26.50;23.25;;;;;16.96;53.05;101130.03;4913851;28;45317;-60
2023/05/01 08:31:29;;;;;;;;;20.00;20.00;;;;;17.08;52.84;101133.63;4913385;28;45415;-60
2023/05/01 08:33:55;;;;;;;;;26.00;21.50;;;;;17.11;52.87;101127.59;4945454;28;45247;-60
2023/05/01 08:36:21;;;;;;;;;22.00;20.25;;;;;17.10;53.08;101125.91;4944690;28;45650;-60
2023/05/01 08:38:47;;;;;;;;;20.60;18.80;;;;;17.16;52.90;101133.22;4928919;28;45687;-60
2023/05/01 08:41:20;;;;;;;;;26.00;22.25;;;;;17.28;53.02;101124.84;4913066;28;45326;-59
2023/05/01 08:43:46;;;;;;;;;26.20;23.80;;;;;17.33;53.17;101124.09;4914453;28;45432;-60
2023/05/01 08:46:12;;;;;;;;;30.50;25.00;;;;;17.41;52.70;101112.63;4912963;28;46423;-59
2023/05/01 08:48:38;;;;;;;;;22.00;19.60;;;;;17.63;52.33;101130.47;4913325;28;45211;-59
2023/05/01 08:51:04;;;;;;;;;19.80;18.60;;;;;17.60;52.31;101131.81;4912963;28;45353;-62
2023/05/01 08:53:29;;;;;;;;;21.50;20.25;;;;;17.55;52.79;101131.75;4914602;28;45559;-59
2023/05/01 08:55:58;;;;;;;;;28.75;25.00;;;;;17.46;52.86;101137.69;4928961;28;45883;-61
2023/05/01 08:58:23;;;;;;;;;23.00;23.00;;;;;17.43;53.07;101129.00;4943345;28;46183;-59
2023/05/01 09:00:49;;;;;;;;;32.75;26.75;;;;;17.52;53.13;101146.09;4945192;28;45246;-59
2023/05/01 09:03:14;;;;;;;;;27.50;23.50;;;;;17.57;53.19;101154.53;4959554;28;45241;-61
2023/05/01 09:05:40;;;;;;;;;25.75;23.75;;;;;17.52;53.02;101149.72;5012743;28;45789;-60
2023/05/01 09:08:06;;;;;;;;;35.00;28.75;;;;;17.50;53.33;101139.97;5029668;28;45260;-61
2023/05/01 09:10:31;;;;;;;;;18.75;18.75;;;;;17.39;52.97;101142.53;4959692;28;45814;-59
2023/05/01 09:13:00;;;;;;;;;21.20;20.40;;;;;17.40;53.37;101147.00;4908007;28;45471;-60
2023/05/01 09:15:25;;;;;;;;;23.20;21.40;;;;;17.27;53.96;101159.25;4909887;28;45559;-61
2023/05/01 09:17:51;;;;;;;;;20.00;18.25;;;;;17.25;54.07;101158.66;4954074;28;45759;-60
2023/05/01 09:20:18;;;;;;;;;19.75;15.25;;;;;17.25;53.87;101155.88;5042510;28;45421;-60
2023/05/01 09:22:43;;;;;;;;;19.60;18.00;;;;;17.26;54.23;101159.47;4991748;28;45635;-60
2023/05/01 09:25:09;;;;;;;;;20.25;20.25;;;;;17.20;54.44;101156.59;4990676;28;45713;-60
2023/05/01 09:27:36;;;;;;;;;22.40;19.60;;;;;17.11;54.32;101160.84;4910115;28;45409;-60
2023/05/01 09:30:02;;;;;;;;;19.60;19.60;;;;;17.17;54.53;101165.41;4969304;28;45408;-61
2023/05/01 09:32:27;;;;;;;;;22.50;21.50;;;;;17.23;54.59;101165.53;5012912;28;46024;-60
2023/05/01 09:34:53;;;;;;;;;31.00;27.50;;;;;17.17;54.43;101168.19;4994274;28;46953;-59
2023/05/01 09:37:28;;;;;;;;;22.40;20.60;;;;;17.12;54.88;101164.50;4930357;28;45405;-60
2023/05/01 09:40:10;;;;;;;;;19.80;19.80;;;;;17.15;54.73;101166.75;4931633;28;45553;-59
2023/05/01 09:42:36;;;;;;;;;25.80;22.60;;;;;17.42;54.59;101163.41;4931738;28;45418;-59
2023/05/01 09:45:03;;;;;;;;;22.00;20.40;;;;;17.60;53.65;101170.66;4931294;28;45358;-59
2023/05/01 09:47:29;;;;;;;;;22.20;19.20;;;;;17.53;53.64;101162.50;4923500;28;45453;-58
2023/05/01 09:49:58;;;;;;;;;20.50;18.50;;;;;17.46;53.74;101154.31;4926977;28;45859;-59
2023/05/01 09:52:27;;;;;;;;;18.80;17.00;;;;;17.44;53.72;101155.66;4928698;28;45430;-59
2023/05/01 09:55:12;;;;;;;;;21.60;18.20;;;;;17.60;53.91;101165.97;4914562;28;46928;-59
2023/05/01 09:57:38;;;;;;;;;17.80;15.20;;;;;17.69;53.73;101169.19;4914451;28;45271;-60
2023/05/01 10:00:07;;;;;;;;;18.00;16.25;;;;;17.73;53.55;101163.97;4917797;28;45392;-60
2023/05/01 10:02:32;;;;;;;;;19.40;16.00;;;;;17.74;53.74;101166.50;4934214;28;45462;-59
2023/05/01 10:04:58;;;;;;;;;12.75;12.75;;;;;17.81;53.60;101171.88;4914828;28;46281;-60
2023/05/01 10:07:24;;;;;;;;;13.20;12.20;;;;;17.61;53.67;101170.44;4993814;28;45512;-58
2023/05/01 10:09:50;;;;;;;;;16.00;13.20;;;;;17.55;53.81;101167.81;4890590;28;45792;-58
2023/05/01 10:12:25;;;;;;;;;16.25;14.00;;;;;17.63;53.83;101166.56;4922578;28;45781;-59
2023/05/01 10:14:52;;;;;;;;;18.60;14.80;;;;;17.63;53.92;101164.63;4951231;28;47101;-60
2023/05/01 10:17:21;;;;;;;;;15.60;15.40;;;;;17.63;53.79;101166.56;4915439;28;45218;-60
2023/05/01 10:19:47;;;;;;;;;22.00;16.80;;;;;17.59;54.05;101169.84;4914977;28;45503;-60
2023/05/01 10:22:13;;;;;;;;;13.00;11.80;;;;;17.51;54.40;101178.56;4914909;28;45404;-60
2023/05/01 10:24:41;;;;;;;;;15.75;13.75;;;;;17.26;54.78;101153.94;4933395;28;47536;-58
2023/05/01 10:27:07;;;;;;;;;21.60;15.80;;;;;17.42;55.03;101172.56;4933669;28;45460;-58
2023/05/01 10:29:36;;;;;;;;;18.80;13.80;;;;;17.38;54.82;101156.66;4934354;28;45578;-57
2023/05/01 10:32:03;;;;;;;;;16.80;15.80;;;;;17.40;55.17;101155.31;4915038;28;45604;-60
2023/05/01 10:34:28;;;;;;;;;19.60;18.20;;;;;17.59;54.98;101163.44;4945798;28;45893;-58
2023/05/01 10:36:59;;;;;;;;;15.50;15.50;;;;;17.71;55.00;101160.59;4917508;28;45501;-61
2023/05/01 10:39:30;;;;;;;;;18.60;15.40;;;;;17.62;55.61;101157.41;4933276;28;45396;-61
2023/05/01 10:41:58;;;;;;;;;18.60;14.60;;;;;17.65;55.37;101150.50;4933893;28;45371;-61
2023/05/01 10:44:25;;;;;;;;;13.60;13.60;;;;;18.06;55.08;101156.81;4919021;28;46879;-60
2023/05/01 10:46:50;;;;;;;;;17.40;15.20;;;;;18.25;54.05;101156.53;4914552;28;45475;-59
2023/05/01 10:49:16;;;;;;;;;20.50;15.75;;;;;18.31;53.94;101158.31;4919194;28;45390;-60
2023/05/01 10:51:57;;;;;;;;;20.50;15.25;;;;;18.33;53.70;101150.56;4964907;28;45435;-60
2023/05/01 10:54:32;;;;;;;;;19.20;17.80;;;;;18.56;53.48;101157.00;4933912;28;46628;-61
2023/05/01 10:57:01;;;;;;;;;18.20;15.80;;;;;18.65;53.38;101157.41;4933534;28;45370;-62
2023/05/01 10:59:45;;;;;;;;;16.80;13.80;;;;;18.70;52.86;101157.47;4934062;28;45392;-62
2023/05/01 11:02:20;;;;;;;;;15.60;15.60;;;;;18.66;52.68;101148.81;4911915;28;45416;-60
2023/05/01 11:04:48;;;;;;;;;28.00;21.60;;;;;18.81;52.34;101150.97;4937225;28;50940;-58
2023/05/01 11:07:13;;;;;;;;;12.00;12.00;;;;;18.96;52.11;101157.81;4983861;28;45405;-60
2023/05/01 11:09:58;;;;;;;;;19.50;16.25;;;;;19.04;52.12;101145.41;5014096;28;45297;-60